sensor_id;sensor_type;location;lat;lon;timestamp;P1;durP1;ratioP1;P2;durP2;ratioP2
20144;SDS011;10233;50.814;6.590;2022-12-20T00:00:47;0.97;;;0.80;;
20144;SDS011;10233;50.814;6.590;2022-12-20T00:01:48;1.50;;;1.00;;
20144;SDS011;10233;50.814;6.590;2022-12-20T00:02:48;1.63;;;0.93;;
20144;SDS011;10233;50.814;6.590;2022-12-20T00:03:49;3.90;;;0.93;;
20144;SDS011;10233;50.814;6.590;2022-12-20T00:04:51;2.50;;;1.05;;
20144;SDS011;10233;50.814;6.590;2022-12-20T00:05:52;1.40;;;1.13;;
20144;SDS011;10233;50.814;6.590;2022-12-20T00:06:52;1.50;;;1.03;;
20144;SDS011;10233;50.814;6.590;2022-12-20T00:07:53;1.33;;;1.00;;
20144;SDS011;10233;50.814;6.590;2022-12-20T00:08:57;2.67;;;1.20;;
20144;SDS011;10233;50.814;6.590;2022-12-20T00:09:59;2.58;;;1.02;;
20144;SDS011;10233;50.814;6.590;2022-12-20T00:11:01;1.85;;;1.30;;
20144;SDS011;10233;50.814;6.590;2022-12-20T00:12:04;1.95;;;0.95;;
20144;SDS011;10233;50.814;6.590;2022-12-20T00:13:04;2.00;;;1.10;;
20144;SDS011;10233;50.814;6.590;2022-12-20T00:14:06;1.40;;;0.80;;
20144;SDS011;10233;50.814;6.590;2022-12-20T00:15:07;1.98;;;0.93;;
20144;SDS011;10233;50.814;6.590;2022-12-20T00:16:12;3.08;;;1.00;;
20144;SDS011;10233;50.814;6.590;2022-12-20T00:17:18;1.50;;;1.00;;
20144;SDS011;10233;50.814;6.590;2022-12-20T00:18:18;3.00;;;1.10;;
20144;SDS011;10233;50.814;6.590;2022-12-20T00:19:19;1.67;;;0.93;;
20144;SDS011;10233;50.814;6.590;2022-12-20T00:20:19;1.27;;;0.83;;
20144;SDS011;10233;50.814;6.590;2022-12-20T00:21:20;2.13;;;1.10;;
20144;SDS011;10233;50.814;6.590;2022-12-20T00:22:20;2.00;;;1.00;;
20144;SDS011;10233;50.814;6.590;2022-12-20T00:23:20;2.92;;;0.90;;
20144;SDS011;10233;50.814;6.590;2022-12-20T00:24:21;3.17;;;0.90;;
20144;SDS011;10233;50.814;6.590;2022-12-20T00:25:21;1.73;;;0.87;;
20144;SDS011;10233;50.814;6.590;2022-12-20T00:26:23;1.77;;;0.80;;
20144;SDS011;10233;50.814;6.590;2022-12-20T00:27:25;1.52;;;0.93;;
20144;SDS011;10233;50.814;6.590;2022-12-20T00:28:26;2.58;;;0.98;;
20144;SDS011;10233;50.814;6.590;2022-12-20T00:29:27;1.77;;;0.93;;
20144;SDS011;10233;50.814;6.590;2022-12-20T00:30:27;2.83;;;1.10;;
20144;SDS011;10233;50.814;6.590;2022-12-20T00:31:28;1.87;;;1.20;;
20144;SDS011;10233;50.814;6.590;2022-12-20T00:32:29;1.50;;;0.90;;
20144;SDS011;10233;50.814;6.590;2022-12-20T00:33:30;1.07;;;0.80;;
20144;SDS011;10233;50.814;6.590;2022-12-20T00:34:34;2.63;;;0.82;;
20144;SDS011;10233;50.814;6.590;2022-12-20T00:35:40;1.88;;;1.00;;
20144;SDS011;10233;50.814;6.590;2022-12-20T00:36:42;2.50;;;1.05;;
20144;SDS011;10233;50.814;6.590;2022-12-20T00:37:42;2.50;;;0.98;;
20144;SDS011;10233;50.814;6.590;2022-12-20T00:38:43;2.40;;;1.00;;
20144;SDS011;10233;50.814;6.590;2022-12-20T00:39:45;2.20;;;0.98;;
20144;SDS011;10233;50.814;6.590;2022-12-20T00:40:45;2.70;;;1.03;;
20144;SDS011;10233;50.814;6.590;2022-12-20T00:41:46;2.22;;;1.27;;
20144;SDS011;10233;50.814;6.590;2022-12-20T00:42:47;1.67;;;1.10;;
20144;SDS011;10233;50.814;6.590;2022-12-20T00:43:47;3.38;;;1.17;;
20144;SDS011;10233;50.814;6.590;2022-12-20T00:44:48;3.15;;;1.30;;
20144;SDS011;10233;50.814;6.590;2022-12-20T00:45:49;2.67;;;1.10;;
20144;SDS011;10233;50.814;6.590;2022-12-20T00:46:49;2.57;;;1.10;;
20144;SDS011;10233;50.814;6.590;2022-12-20T00:47:50;2.45;;;1.50;;
20144;SDS011;10233;50.814;6.590;2022-12-20T00:48:50;5.50;;;1.60;;
20144;SDS011;10233;50.814;6.590;2022-12-20T00:49:52;3.25;;;1.23;;
20144;SDS011;10233;50.814;6.590;2022-12-20T00:50:56;3.97;;;1.40;;
20144;SDS011;10233;50.814;6.590;2022-12-20T00:52:04;2.90;;;1.02;;
20144;SDS011;10233;50.814;6.590;2022-12-20T00:53:04;1.77;;;1.10;;
20144;SDS011;10233;50.814;6.590;2022-12-20T00:54:09;1.97;;;0.90;;
20144;SDS011;10233;50.814;6.590;2022-12-20T00:55:09;1.98;;;0.90;;
20144;SDS011;10233;50.814;6.590;2022-12-20T00:56:10;2.33;;;1.20;;
20144;SDS011;10233;50.814;6.590;2022-12-20T00:57:11;2.15;;;1.10;;
20144;SDS011;10233;50.814;6.590;2022-12-20T00:58:12;2.67;;;1.25;;
20144;SDS011;10233;50.814;6.590;2022-12-20T00:59:12;3.28;;;1.08;;
20144;SDS011;10233;50.814;6.590;2022-12-20T01:00:13;3.47;;;1.30;;
20144;SDS011;10233;50.814;6.590;2022-12-20T01:01:18;2.17;;;1.10;;
20144;SDS011;10233;50.814;6.590;2022-12-20T01:02:21;1.70;;;1.10;;
20144;SDS011;10233;50.814;6.590;2022-12-20T01:03:22;2.72;;;1.20;;
20144;SDS011;10233;50.814;6.590;2022-12-20T01:04:23;2.63;;;1.30;;
20144;SDS011;10233;50.814;6.590;2022-12-20T01:05:24;1.38;;;1.13;;
20144;SDS011;10233;50.814;6.590;2022-12-20T01:06:24;1.73;;;1.03;;
20144;SDS011;10233;50.814;6.590;2022-12-20T01:07:25;2.97;;;1.23;;
20144;SDS011;10233;50.814;6.590;2022-12-20T01:08:26;2.13;;;1.23;;
20144;SDS011;10233;50.814;6.590;2022-12-20T01:09:28;2.22;;;1.20;;
20144;SDS011;10233;50.814;6.590;2022-12-20T01:10:29;3.30;;;1.10;;
20144;SDS011;10233;50.814;6.590;2022-12-20T01:11:33;2.00;;;1.13;;
20144;SDS011;10233;50.814;6.590;2022-12-20T01:12:35;2.33;;;1.25;;
20144;SDS011;10233;50.814;6.590;2022-12-20T01:13:36;2.17;;;1.03;;
20144;SDS011;10233;50.814;6.590;2022-12-20T01:14:38;1.20;;;0.90;;
20144;SDS011;10233;50.814;6.590;2022-12-20T01:15:39;2.07;;;1.10;;
20144;SDS011;10233;50.814;6.590;2022-12-20T01:16:40;2.30;;;1.10;;
20144;SDS011;10233;50.814;6.590;2022-12-20T01:17:42;1.45;;;1.13;;
20144;SDS011;10233;50.814;6.590;2022-12-20T01:18:43;1.85;;;1.02;;
20144;SDS011;10233;50.814;6.590;2022-12-20T01:19:44;2.03;;;1.20;;
20144;SDS011;10233;50.814;6.590;2022-12-20T01:20:44;2.63;;;1.10;;
20144;SDS011;10233;50.814;6.590;2022-12-20T01:21:45;4.45;;;1.10;;
20144;SDS011;10233;50.814;6.590;2022-12-20T01:22:46;2.58;;;1.30;;
20144;SDS011;10233;50.814;6.590;2022-12-20T01:23:47;2.13;;;1.20;;
20144;SDS011;10233;50.814;6.590;2022-12-20T01:24:47;2.80;;;1.37;;
20144;SDS011;10233;50.814;6.590;2022-12-20T01:25:49;1.70;;;1.00;;
20144;SDS011;10233;50.814;6.590;2022-12-20T01:26:50;2.25;;;1.20;;
20144;SDS011;10233;50.814;6.590;2022-12-20T01:27:51;1.80;;;1.10;;
20144;SDS011;10233;50.814;6.590;2022-12-20T01:28:53;1.63;;;1.10;;
20144;SDS011;10233;50.814;6.590;2022-12-20T01:29:56;2.65;;;1.30;;
20144;SDS011;10233;50.814;6.590;2022-12-20T01:30:56;2.30;;;1.27;;
20144;SDS011;10233;50.814;6.590;2022-12-20T01:31:57;3.90;;;1.50;;
20144;SDS011;10233;50.814;6.590;2022-12-20T01:32:57;2.53;;;1.25;;
20144;SDS011;10233;50.814;6.590;2022-12-20T01:33:58;3.10;;;1.00;;
20144;SDS011;10233;50.814;6.590;2022-12-20T01:34:59;2.28;;;1.33;;
20144;SDS011;10233;50.814;6.590;2022-12-20T01:36:01;2.00;;;1.25;;
20144;SDS011;10233;50.814;6.590;2022-12-20T01:37:03;2.00;;;1.15;;
20144;SDS011;10233;50.814;6.590;2022-12-20T01:38:04;5.87;;;1.50;;
20144;SDS011;10233;50.814;6.590;2022-12-20T01:39:09;3.30;;;1.25;;
20144;SDS011;10233;50.814;6.590;2022-12-20T01:40:12;4.07;;;1.35;;
20144;SDS011;10233;50.814;6.590;2022-12-20T01:41:16;2.55;;;1.30;;
20144;SDS011;10233;50.814;6.590;2022-12-20T01:42:18;2.83;;;1.70;;
20144;SDS011;10233;50.814;6.590;2022-12-20T01:43:20;2.50;;;1.30;;
20144;SDS011;10233;50.814;6.590;2022-12-20T01:45:24;2.80;;;1.40;;
20144;SDS011;10233;50.814;6.590;2022-12-20T01:46:31;3.42;;;1.38;;
20144;SDS011;10233;50.814;6.590;2022-12-20T01:47:33;2.03;;;1.40;;
20144;SDS011;10233;50.814;6.590;2022-12-20T01:48:36;2.85;;;1.20;;
20144;SDS011;10233;50.814;6.590;2022-12-20T01:49:39;2.42;;;1.20;;
20144;SDS011;10233;50.814;6.590;2022-12-20T01:50:44;1.67;;;1.20;;
20144;SDS011;10233;50.814;6.590;2022-12-20T01:51:51;3.58;;;1.15;;
20144;SDS011;10233;50.814;6.590;2022-12-20T01:52:58;1.30;;;1.02;;
20144;SDS011;10233;50.814;6.590;2022-12-20T01:54:19;1.63;;;1.13;;
20144;SDS011;10233;50.814;6.590;2022-12-20T01:55:25;1.95;;;1.00;;
20144;SDS011;10233;50.814;6.590;2022-12-20T01:56:27;2.33;;;1.10;;
20144;SDS011;10233;50.814;6.590;2022-12-20T01:57:30;2.55;;;1.15;;
20144;SDS011;10233;50.814;6.590;2022-12-20T01:58:36;2.75;;;1.70;;
20144;SDS011;10233;50.814;6.590;2022-12-20T01:59:38;1.65;;;1.08;;
20144;SDS011;10233;50.814;6.590;2022-12-20T02:00:40;2.83;;;1.30;;
20144;SDS011;10233;50.814;6.590;2022-12-20T02:01:41;1.97;;;1.07;;
20144;SDS011;10233;50.814;6.590;2022-12-20T02:02:44;1.70;;;1.10;;
20144;SDS011;10233;50.814;6.590;2022-12-20T02:03:46;5.03;;;1.20;;
20144;SDS011;10233;50.814;6.590;2022-12-20T02:04:49;1.67;;;1.10;;
20144;SDS011;10233;50.814;6.590;2022-12-20T02:05:50;2.53;;;1.23;;
20144;SDS011;10233;50.814;6.590;2022-12-20T02:06:50;2.23;;;1.20;;
20144;SDS011;10233;50.814;6.590;2022-12-20T02:07:52;2.93;;;1.43;;
20144;SDS011;10233;50.814;6.590;2022-12-20T02:08:56;3.67;;;1.20;;
20144;SDS011;10233;50.814;6.590;2022-12-20T02:09:58;2.78;;;1.30;;
20144;SDS011;10233;50.814;6.590;2022-12-20T02:13:57;1.90;;;1.15;;
20144;SDS011;10233;50.814;6.590;2022-12-20T02:16:29;3.22;;;1.50;;
20144;SDS011;10233;50.814;6.590;2022-12-20T02:19:21;2.85;;;1.27;;
20144;SDS011;10233;50.814;6.590;2022-12-20T02:21:54;1.67;;;1.17;;
20144;SDS011;10233;50.814;6.590;2022-12-20T02:24:46;2.60;;;1.20;;
20144;SDS011;10233;50.814;6.590;2022-12-20T02:27:18;1.70;;;1.20;;
20144;SDS011;10233;50.814;6.590;2022-12-20T02:28:52;1.45;;;1.00;;
20144;SDS011;10233;50.814;6.590;2022-12-20T02:30:14;3.05;;;1.35;;
20144;SDS011;10233;50.814;6.590;2022-12-20T02:31:18;3.28;;;1.33;;
20144;SDS011;10233;50.814;6.590;2022-12-20T02:32:43;2.58;;;1.40;;
20144;SDS011;10233;50.814;6.590;2022-12-20T02:34:01;4.82;;;1.13;;
20144;SDS011;10233;50.814;6.590;2022-12-20T02:35:04;1.90;;;0.90;;
20144;SDS011;10233;50.814;6.590;2022-12-20T02:36:06;4.15;;;1.20;;
20144;SDS011;10233;50.814;6.590;2022-12-20T02:37:08;2.72;;;1.30;;
20144;SDS011;10233;50.814;6.590;2022-12-20T02:39:32;1.75;;;1.10;;
20144;SDS011;10233;50.814;6.590;2022-12-20T02:40:39;2.45;;;1.40;;
20144;SDS011;10233;50.814;6.590;2022-12-20T02:41:50;2.72;;;1.13;;
20144;SDS011;10233;50.814;6.590;2022-12-20T02:42:55;2.50;;;1.38;;
20144;SDS011;10233;50.814;6.590;2022-12-20T02:44:02;1.38;;;0.93;;
20144;SDS011;10233;50.814;6.590;2022-12-20T02:45:26;1.90;;;1.38;;
20144;SDS011;10233;50.814;6.590;2022-12-20T02:46:33;2.97;;;1.33;;
20144;SDS011;10233;50.814;6.590;2022-12-20T02:47:39;2.17;;;1.60;;
20144;SDS011;10233;50.814;6.590;2022-12-20T02:48:45;1.75;;;1.25;;
20144;SDS011;10233;50.814;6.590;2022-12-20T02:49:48;2.95;;;1.15;;
20144;SDS011;10233;50.814;6.590;2022-12-20T02:50:51;1.85;;;1.27;;
20144;SDS011;10233;50.814;6.590;2022-12-20T02:51:53;2.00;;;1.23;;
20144;SDS011;10233;50.814;6.590;2022-12-20T02:52:56;1.52;;;1.17;;
20144;SDS011;10233;50.814;6.590;2022-12-20T02:53:58;2.30;;;1.52;;
20144;SDS011;10233;50.814;6.590;2022-12-20T02:54:59;2.75;;;1.67;;
20144;SDS011;10233;50.814;6.590;2022-12-20T02:57:42;1.65;;;1.25;;
20144;SDS011;10233;50.814;6.590;2022-12-20T02:59:12;2.00;;;1.20;;
20144;SDS011;10233;50.814;6.590;2022-12-20T03:00:18;1.60;;;1.10;;
20144;SDS011;10233;50.814;6.590;2022-12-20T03:01:28;2.38;;;1.27;;
20144;SDS011;10233;50.814;6.590;2022-12-20T03:02:31;2.30;;;1.20;;
20144;SDS011;10233;50.814;6.590;2022-12-20T03:03:54;2.47;;;1.15;;
20144;SDS011;10233;50.814;6.590;2022-12-20T03:04:57;2.70;;;1.33;;
20144;SDS011;10233;50.814;6.590;2022-12-20T03:05:58;3.67;;;1.20;;
20144;SDS011;10233;50.814;6.590;2022-12-20T03:06:59;2.07;;;1.13;;
20144;SDS011;10233;50.814;6.590;2022-12-20T03:08:02;3.05;;;1.38;;
20144;SDS011;10233;50.814;6.590;2022-12-20T03:09:03;2.05;;;1.33;;
20144;SDS011;10233;50.814;6.590;2022-12-20T03:10:06;3.17;;;1.40;;
20144;SDS011;10233;50.814;6.590;2022-12-20T03:11:07;2.30;;;1.30;;
20144;SDS011;10233;50.814;6.590;2022-12-20T03:12:08;2.55;;;1.33;;
20144;SDS011;10233;50.814;6.590;2022-12-20T03:13:11;1.55;;;1.20;;
20144;SDS011;10233;50.814;6.590;2022-12-20T03:14:19;1.52;;;1.25;;
20144;SDS011;10233;50.814;6.590;2022-12-20T03:15:21;2.88;;;1.40;;
20144;SDS011;10233;50.814;6.590;2022-12-20T03:16:27;1.55;;;1.10;;
20144;SDS011;10233;50.814;6.590;2022-12-20T03:17:28;3.00;;;1.40;;
20144;SDS011;10233;50.814;6.590;2022-12-20T03:18:28;1.70;;;1.10;;
20144;SDS011;10233;50.814;6.590;2022-12-20T03:19:29;2.08;;;1.20;;
20144;SDS011;10233;50.814;6.590;2022-12-20T03:20:30;1.55;;;1.05;;
20144;SDS011;10233;50.814;6.590;2022-12-20T03:21:31;2.33;;;1.10;;
20144;SDS011;10233;50.814;6.590;2022-12-20T03:22:32;3.57;;;1.40;;
20144;SDS011;10233;50.814;6.590;2022-12-20T03:23:33;2.53;;;1.30;;
20144;SDS011;10233;50.814;6.590;2022-12-20T03:24:33;3.00;;;1.20;;
20144;SDS011;10233;50.814;6.590;2022-12-20T03:25:35;3.10;;;1.23;;
20144;SDS011;10233;50.814;6.590;2022-12-20T03:26:37;3.13;;;1.40;;
20144;SDS011;10233;50.814;6.590;2022-12-20T03:27:37;3.10;;;1.13;;
20144;SDS011;10233;50.814;6.590;2022-12-20T03:28:38;1.92;;;1.40;;
20144;SDS011;10233;50.814;6.590;2022-12-20T03:29:40;5.20;;;1.30;;
20144;SDS011;10233;50.814;6.590;2022-12-20T03:30:40;2.42;;;1.08;;
20144;SDS011;10233;50.814;6.590;2022-12-20T03:31:42;3.00;;;1.20;;
20144;SDS011;10233;50.814;6.590;2022-12-20T03:32:44;2.00;;;1.13;;
20144;SDS011;10233;50.814;6.590;2022-12-20T03:33:45;1.65;;;1.10;;
20144;SDS011;10233;50.814;6.590;2022-12-20T03:34:46;2.63;;;1.10;;
20144;SDS011;10233;50.814;6.590;2022-12-20T03:35:48;2.22;;;1.30;;
20144;SDS011;10233;50.814;6.590;2022-12-20T03:36:51;2.05;;;1.10;;
20144;SDS011;10233;50.814;6.590;2022-12-20T03:37:52;41.87;;;18.73;;
20144;SDS011;10233;50.814;6.590;2022-12-20T03:38:52;108.27;;;53.40;;
20144;SDS011;10233;50.814;6.590;2022-12-20T03:39:55;61.70;;;39.03;;
20144;SDS011;10233;50.814;6.590;2022-12-20T03:40:55;236.57;;;97.53;;
20144;SDS011;10233;50.814;6.590;2022-12-20T03:41:56;358.45;;;144.35;;
20144;SDS011;10233;50.814;6.590;2022-12-20T03:42:56;48.05;;;20.73;;
20144;SDS011;10233;50.814;6.590;2022-12-20T03:43:57;27.77;;;13.13;;
20144;SDS011;10233;50.814;6.590;2022-12-20T03:44:58;91.43;;;42.67;;
20144;SDS011;10233;50.814;6.590;2022-12-20T03:46:02;160.02;;;75.88;;
20144;SDS011;10233;50.814;6.590;2022-12-20T03:47:08;168.65;;;74.88;;
20144;SDS011;10233;50.814;6.590;2022-12-20T03:48:11;287.73;;;126.13;;
20144;SDS011;10233;50.814;6.590;2022-12-20T03:49:13;371.02;;;150.50;;
20144;SDS011;10233;50.814;6.590;2022-12-20T03:50:19;88.38;;;38.55;;
20144;SDS011;10233;50.814;6.590;2022-12-20T03:51:20;49.42;;;27.45;;
20144;SDS011;10233;50.814;6.590;2022-12-20T03:52:21;21.27;;;16.37;;
20144;SDS011;10233;50.814;6.590;2022-12-20T03:53:21;7.82;;;5.95;;
20144;SDS011;10233;50.814;6.590;2022-12-20T03:54:22;6.37;;;4.83;;
20144;SDS011;10233;50.814;6.590;2022-12-20T03:55:42;7.75;;;6.63;;
20144;SDS011;10233;50.814;6.590;2022-12-20T03:56:43;6.07;;;5.07;;
20144;SDS011;10233;50.814;6.590;2022-12-20T03:57:44;6.97;;;5.80;;
20144;SDS011;10233;50.814;6.590;2022-12-20T03:58:57;2.72;;;2.50;;
20144;SDS011;10233;50.814;6.590;2022-12-20T03:59:58;3.73;;;2.77;;
20144;SDS011;10233;50.814;6.590;2022-12-20T04:00:58;4.18;;;2.75;;
20144;SDS011;10233;50.814;6.590;2022-12-20T04:02:25;15.70;;;12.07;;
20144;SDS011;10233;50.814;6.590;2022-12-20T04:03:27;10.57;;;8.13;;
20144;SDS011;10233;50.814;6.590;2022-12-20T04:04:30;5.55;;;4.68;;
20144;SDS011;10233;50.814;6.590;2022-12-20T04:05:32;1.90;;;1.23;;
20144;SDS011;10233;50.814;6.590;2022-12-20T04:06:32;2.33;;;1.45;;
20144;SDS011;10233;50.814;6.590;2022-12-20T04:07:33;6.10;;;3.90;;
20144;SDS011;10233;50.814;6.590;2022-12-20T04:08:34;2.65;;;2.20;;
20144;SDS011;10233;50.814;6.590;2022-12-20T04:09:34;5.32;;;3.65;;
20144;SDS011;10233;50.814;6.590;2022-12-20T04:10:41;3.33;;;1.52;;
20144;SDS011;10233;50.814;6.590;2022-12-20T04:12:05;1.83;;;1.38;;
20144;SDS011;10233;50.814;6.590;2022-12-20T04:13:07;2.30;;;1.30;;
20144;SDS011;10233;50.814;6.590;2022-12-20T04:14:08;4.30;;;1.50;;
20144;SDS011;10233;50.814;6.590;2022-12-20T04:15:09;1.40;;;1.17;;
20144;SDS011;10233;50.814;6.590;2022-12-20T04:16:13;2.65;;;1.38;;
20144;SDS011;10233;50.814;6.590;2022-12-20T04:17:15;2.55;;;2.25;;
20144;SDS011;10233;50.814;6.590;2022-12-20T04:18:15;3.60;;;1.60;;
20144;SDS011;10233;50.814;6.590;2022-12-20T04:19:16;3.15;;;2.40;;
20144;SDS011;10233;50.814;6.590;2022-12-20T04:20:19;2.80;;;1.55;;
20144;SDS011;10233;50.814;6.590;2022-12-20T04:21:28;2.42;;;1.70;;
20144;SDS011;10233;50.814;6.590;2022-12-20T04:22:32;2.28;;;1.63;;
20144;SDS011;10233;50.814;6.590;2022-12-20T04:23:38;2.70;;;1.60;;
20144;SDS011;10233;50.814;6.590;2022-12-20T04:24:40;3.53;;;2.70;;
20144;SDS011;10233;50.814;6.590;2022-12-20T04:25:51;4.85;;;2.65;;
20144;SDS011;10233;50.814;6.590;2022-12-20T04:26:53;4.03;;;3.28;;
20144;SDS011;10233;50.814;6.590;2022-12-20T04:27:53;2.83;;;2.45;;
20144;SDS011;10233;50.814;6.590;2022-12-20T04:28:54;3.37;;;2.60;;
20144;SDS011;10233;50.814;6.590;2022-12-20T04:29:55;3.80;;;3.00;;
20144;SDS011;10233;50.814;6.590;2022-12-20T04:30:56;4.78;;;3.97;;
20144;SDS011;10233;50.814;6.590;2022-12-20T04:32:00;3.35;;;2.60;;
20144;SDS011;10233;50.814;6.590;2022-12-20T04:33:01;4.18;;;1.45;;
20144;SDS011;10233;50.814;6.590;2022-12-20T04:34:03;2.22;;;1.30;;
20144;SDS011;10233;50.814;6.590;2022-12-20T04:35:06;3.75;;;1.55;;
20144;SDS011;10233;50.814;6.590;2022-12-20T04:36:12;2.70;;;2.13;;
20144;SDS011;10233;50.814;6.590;2022-12-20T04:37:14;3.30;;;2.92;;
20144;SDS011;10233;50.814;6.590;2022-12-20T04:38:21;3.05;;;2.38;;
20144;SDS011;10233;50.814;6.590;2022-12-20T04:39:22;4.22;;;2.78;;
20144;SDS011;10233;50.814;6.590;2022-12-20T04:40:50;2.45;;;2.15;;
20144;SDS011;10233;50.814;6.590;2022-12-20T04:41:53;3.33;;;1.67;;
20144;SDS011;10233;50.814;6.590;2022-12-20T04:42:54;2.90;;;2.60;;
20144;SDS011;10233;50.814;6.590;2022-12-20T04:43:55;3.55;;;2.88;;
20144;SDS011;10233;50.814;6.590;2022-12-20T04:45:00;2.72;;;1.77;;
20144;SDS011;10233;50.814;6.590;2022-12-20T04:46:02;3.00;;;2.78;;
20144;SDS011;10233;50.814;6.590;2022-12-20T04:47:03;3.28;;;2.30;;
20144;SDS011;10233;50.814;6.590;2022-12-20T04:48:04;2.50;;;2.30;;
20144;SDS011;10233;50.814;6.590;2022-12-20T04:49:10;3.58;;;2.55;;
20144;SDS011;10233;50.814;6.590;2022-12-20T04:50:13;2.95;;;2.47;;
20144;SDS011;10233;50.814;6.590;2022-12-20T04:51:16;3.25;;;1.88;;
20144;SDS011;10233;50.814;6.590;2022-12-20T04:52:17;5.78;;;1.85;;
20144;SDS011;10233;50.814;6.590;2022-12-20T04:53:36;3.10;;;1.77;;
20144;SDS011;10233;50.814;6.590;2022-12-20T04:54:51;3.83;;;1.38;;
20144;SDS011;10233;50.814;6.590;2022-12-20T04:55:58;1.87;;;1.40;;
20144;SDS011;10233;50.814;6.590;2022-12-20T04:56:59;2.20;;;1.40;;
20144;SDS011;10233;50.814;6.590;2022-12-20T04:58:01;3.50;;;1.70;;
20144;SDS011;10233;50.814;6.590;2022-12-20T04:59:01;3.20;;;1.97;;
20144;SDS011;10233;50.814;6.590;2022-12-20T05:00:02;2.08;;;1.48;;
20144;SDS011;10233;50.814;6.590;2022-12-20T05:01:03;2.30;;;1.27;;
20144;SDS011;10233;50.814;6.590;2022-12-20T05:02:12;2.10;;;1.50;;
20144;SDS011;10233;50.814;6.590;2022-12-20T05:03:32;4.57;;;2.63;;
20144;SDS011;10233;50.814;6.590;2022-12-20T05:04:33;3.93;;;2.20;;
20144;SDS011;10233;50.814;6.590;2022-12-20T05:05:34;4.13;;;3.08;;
20144;SDS011;10233;50.814;6.590;2022-12-20T05:06:34;3.00;;;2.27;;
20144;SDS011;10233;50.814;6.590;2022-12-20T05:07:35;1.77;;;1.30;;
20144;SDS011;10233;50.814;6.590;2022-12-20T05:08:36;3.70;;;1.90;;
20144;SDS011;10233;50.814;6.590;2022-12-20T05:09:43;3.05;;;1.67;;
20144;SDS011;10233;50.814;6.590;2022-12-20T05:10:44;2.60;;;1.33;;
20144;SDS011;10233;50.814;6.590;2022-12-20T05:11:46;2.38;;;1.10;;
20144;SDS011;10233;50.814;6.590;2022-12-20T05:12:46;2.28;;;1.27;;
20144;SDS011;10233;50.814;6.590;2022-12-20T05:13:55;1.75;;;1.10;;
20144;SDS011;10233;50.814;6.590;2022-12-20T05:14:56;2.47;;;1.10;;
20144;SDS011;10233;50.814;6.590;2022-12-20T05:15:56;1.57;;;1.00;;
20144;SDS011;10233;50.814;6.590;2022-12-20T05:17:01;1.58;;;1.00;;
20144;SDS011;10233;50.814;6.590;2022-12-20T05:18:02;2.75;;;1.30;;
20144;SDS011;10233;50.814;6.590;2022-12-20T05:19:13;3.55;;;1.20;;
20144;SDS011;10233;50.814;6.590;2022-12-20T05:20:15;2.70;;;1.20;;
20144;SDS011;10233;50.814;6.590;2022-12-20T05:21:18;1.38;;;1.20;;
20144;SDS011;10233;50.814;6.590;2022-12-20T05:22:38;2.70;;;1.20;;
20144;SDS011;10233;50.814;6.590;2022-12-20T05:23:57;3.53;;;1.35;;
20144;SDS011;10233;50.814;6.590;2022-12-20T05:25:45;1.40;;;1.08;;
20144;SDS011;10233;50.814;6.590;2022-12-20T05:27:04;1.55;;;1.10;;
20144;SDS011;10233;50.814;6.590;2022-12-20T05:28:04;3.47;;;1.17;;
20144;SDS011;10233;50.814;6.590;2022-12-20T05:29:08;1.90;;;1.20;;
20144;SDS011;10233;50.814;6.590;2022-12-20T05:30:11;2.97;;;1.17;;
20144;SDS011;10233;50.814;6.590;2022-12-20T05:31:12;2.30;;;1.30;;
20144;SDS011;10233;50.814;6.590;2022-12-20T05:32:13;3.17;;;1.20;;
20144;SDS011;10233;50.814;6.590;2022-12-20T05:33:15;2.90;;;1.40;;
20144;SDS011;10233;50.814;6.590;2022-12-20T05:34:17;2.03;;;1.30;;
20144;SDS011;10233;50.814;6.590;2022-12-20T05:35:23;2.65;;;1.25;;
20144;SDS011;10233;50.814;6.590;2022-12-20T05:36:29;1.75;;;0.88;;
20144;SDS011;10233;50.814;6.590;2022-12-20T05:37:31;1.35;;;1.08;;
20144;SDS011;10233;50.814;6.590;2022-12-20T05:38:40;1.80;;;1.30;;
20144;SDS011;10233;50.814;6.590;2022-12-20T05:39:46;2.25;;;1.35;;
20144;SDS011;10233;50.814;6.590;2022-12-20T05:40:52;2.97;;;1.10;;
20144;SDS011;10233;50.814;6.590;2022-12-20T05:41:53;3.28;;;1.30;;
20144;SDS011;10233;50.814;6.590;2022-12-20T05:42:56;1.85;;;1.17;;
20144;SDS011;10233;50.814;6.590;2022-12-20T05:44:04;3.05;;;1.17;;
20144;SDS011;10233;50.814;6.590;2022-12-20T05:45:08;3.15;;;1.42;;
20144;SDS011;10233;50.814;6.590;2022-12-20T05:46:17;1.95;;;1.08;;
20144;SDS011;10233;50.814;6.590;2022-12-20T05:47:27;2.83;;;1.48;;
20144;SDS011;10233;50.814;6.590;2022-12-20T05:48:36;1.90;;;1.30;;
20144;SDS011;10233;50.814;6.590;2022-12-20T05:49:38;2.38;;;1.30;;
20144;SDS011;10233;50.814;6.590;2022-12-20T05:50:42;2.35;;;1.45;;
20144;SDS011;10233;50.814;6.590;2022-12-20T05:51:56;2.05;;;1.30;;
20144;SDS011;10233;50.814;6.590;2022-12-20T05:52:58;2.10;;;1.10;;
20144;SDS011;10233;50.814;6.590;2022-12-20T05:53:59;1.70;;;1.20;;
20144;SDS011;10233;50.814;6.590;2022-12-20T05:55:25;2.15;;;1.20;;
20144;SDS011;10233;50.814;6.590;2022-12-20T05:56:26;6.85;;;1.45;;
20144;SDS011;10233;50.814;6.590;2022-12-20T05:57:27;3.05;;;1.65;;
20144;SDS011;10233;50.814;6.590;2022-12-20T05:58:27;3.00;;;1.70;;
20144;SDS011;10233;50.814;6.590;2022-12-20T05:59:33;2.38;;;1.30;;
20144;SDS011;10233;50.814;6.590;2022-12-20T06:00:35;2.88;;;1.33;;
20144;SDS011;10233;50.814;6.590;2022-12-20T06:01:36;4.77;;;1.50;;
20144;SDS011;10233;50.814;6.590;2022-12-20T06:02:37;2.07;;;1.20;;
20144;SDS011;10233;50.814;6.590;2022-12-20T06:03:38;3.92;;;1.30;;
20144;SDS011;10233;50.814;6.590;2022-12-20T06:04:46;1.38;;;1.17;;
20144;SDS011;10233;50.814;6.590;2022-12-20T06:05:50;2.00;;;1.23;;
20144;SDS011;10233;50.814;6.590;2022-12-20T06:06:57;1.85;;;1.30;;
20144;SDS011;10233;50.814;6.590;2022-12-20T06:07:59;1.75;;;1.23;;
20144;SDS011;10233;50.814;6.590;2022-12-20T06:08:59;2.00;;;0.90;;
20144;SDS011;10233;50.814;6.590;2022-12-20T06:10:21;4.10;;;1.30;;
20144;SDS011;10233;50.814;6.590;2022-12-20T06:11:26;3.08;;;1.17;;
20144;SDS011;10233;50.814;6.590;2022-12-20T06:12:37;2.05;;;1.20;;
20144;SDS011;10233;50.814;6.590;2022-12-20T06:13:37;2.30;;;0.90;;
20144;SDS011;10233;50.814;6.590;2022-12-20T06:14:38;2.55;;;1.02;;
20144;SDS011;10233;50.814;6.590;2022-12-20T06:15:39;3.72;;;1.10;;
20144;SDS011;10233;50.814;6.590;2022-12-20T06:16:39;1.50;;;1.10;;
20144;SDS011;10233;50.814;6.590;2022-12-20T06:17:42;2.45;;;1.35;;
20144;SDS011;10233;50.814;6.590;2022-12-20T06:18:43;1.30;;;1.00;;
20144;SDS011;10233;50.814;6.590;2022-12-20T06:19:45;2.40;;;1.13;;
20144;SDS011;10233;50.814;6.590;2022-12-20T06:20:49;1.53;;;1.10;;
20144;SDS011;10233;50.814;6.590;2022-12-20T06:21:53;2.30;;;0.90;;
20144;SDS011;10233;50.814;6.590;2022-12-20T06:23:01;2.88;;;1.27;;
20144;SDS011;10233;50.814;6.590;2022-12-20T06:24:08;2.08;;;1.00;;
20144;SDS011;10233;50.814;6.590;2022-12-20T06:25:12;1.50;;;1.00;;
20144;SDS011;10233;50.814;6.590;2022-12-20T06:26:14;3.58;;;1.20;;
20144;SDS011;10233;50.814;6.590;2022-12-20T06:27:21;4.43;;;1.10;;
20144;SDS011;10233;50.814;6.590;2022-12-20T06:28:29;2.20;;;1.35;;
20144;SDS011;10233;50.814;6.590;2022-12-20T06:29:30;3.40;;;1.20;;
20144;SDS011;10233;50.814;6.590;2022-12-20T06:30:41;1.42;;;1.10;;
20144;SDS011;10233;50.814;6.590;2022-12-20T06:31:47;2.10;;;1.08;;
20144;SDS011;10233;50.814;6.590;2022-12-20T06:32:48;2.85;;;1.10;;
20144;SDS011;10233;50.814;6.590;2022-12-20T06:33:49;2.20;;;0.90;;
20144;SDS011;10233;50.814;6.590;2022-12-20T06:34:51;2.38;;;1.27;;
20144;SDS011;10233;50.814;6.590;2022-12-20T06:35:51;1.97;;;1.20;;
20144;SDS011;10233;50.814;6.590;2022-12-20T06:36:54;1.55;;;1.10;;
20144;SDS011;10233;50.814;6.590;2022-12-20T06:37:59;1.02;;;0.93;;
20144;SDS011;10233;50.814;6.590;2022-12-20T06:39:01;2.03;;;1.10;;